Time;durP1;ratioP1;P1;durP2;ratioP2;P2;SDS_P1;SDS_P2;PMS_P1;PMS_P2;Temp;Humidity;BMP_temperature;BMP_pressure;BME280_temperature;BME280_humidity;BME280_pressure;Samples;Min_cycle;Max_cycle;Signal;HPM_P1;HPM_P2
2021/06/07 00:01:28;;;;;;;11.55;5.13;;;;;;;16.57;67.33;96533.78;5095388;28;20488;-64
2021/06/07 00:03:53;;;;;;;5.93;5.32;;;;;;;16.54;66.65;96532.19;5095307;28;20024;-63
2021/06/07 00:06:19;;;;;;;8.95;6.28;;;;;;;16.53;67.20;96529.66;5095334;28;20024;-63
2021/06/07 00:08:46;;;;;;;9.77;5.50;;;;;;;16.37;67.08;96524.44;5095242;28;20144;-64
2021/06/07 00:11:13;;;;;;;8.07;6.90;;;;;;;16.39;67.19;96520.78;5095177;28;20012;-63
2021/06/07 00:13:40;;;;;;;7.60;5.65;;;;;;;16.38;67.30;96531.44;5095059;28;20027;-63
2021/06/07 00:16:06;;;;;;;7.82;6.45;;;;;;;16.33;67.70;96523.81;5095210;28;20047;-63
2021/06/07 00:18:32;;;;;;;6.25;5.55;;;;;;;16.33;67.65;96518.53;5095117;28;20051;-63
2021/06/07 00:21:20;;;;;;;16.27;6.90;;;;;;;16.30;67.37;96521.34;5095077;28;20539;-63
2021/06/07 00:23:46;;;;;;;6.93;6.00;;;;;;;16.23;68.20;96512.97;5094018;28;20044;-63
2021/06/07 00:26:12;;;;;;;6.30;5.43;;;;;;;16.15;68.17;96513.44;5094915;28;20048;-64
2021/06/07 00:28:38;;;;;;;7.78;6.97;;;;;;;16.07;68.17;96507.78;5094754;28;20071;-63
2021/06/07 00:31:05;;;;;;;6.60;5.78;;;;;;;16.10;68.78;96507.59;5093608;28;20017;-63
2021/06/07 00:33:31;;;;;;;8.43;5.85;;;;;;;16.12;67.55;96512.78;5094974;28;20492;-64
2021/06/07 00:35:57;;;;;;;9.30;7.50;;;;;;;16.11;68.60;96506.66;5094722;28;20021;-63
2021/06/07 00:38:23;;;;;;;6.93;6.30;;;;;;;16.06;67.84;96503.44;5094351;28;20044;-63
2021/06/07 00:40:49;;;;;;;9.68;6.88;;;;;;;16.03;68.38;96507.13;5094588;28;20020;-63
2021/06/07 00:43:14;;;;;;;10.80;7.75;;;;;;;16.05;68.66;96501.75;5094524;28;20024;-63
2021/06/07 00:45:40;;;;;;;7.28;6.57;;;;;;;16.09;69.24;96505.03;5094418;28;20077;-64
2021/06/07 00:48:07;;;;;;;9.50;6.78;;;;;;;16.07;69.62;96504.31;5094489;28;20027;-63
2021/06/07 00:50:39;;;;;;;6.75;6.00;;;;;;;16.09;69.67;96505.03;5094534;28;20060;-64
2021/06/07 00:53:07;;;;;;;10.70;6.47;;;;;;;16.11;69.45;96503.16;5094442;28;20028;-64
2021/06/07 00:55:40;;;;;;;7.30;6.32;;;;;;;16.05;68.88;96501.75;5094466;28;20386;-64
2021/06/07 00:58:07;;;;;;;9.40;7.63;;;;;;;16.00;68.70;96507.31;5094462;28;20027;-63
2021/06/07 01:00:34;;;;;;;12.27;6.22;;;;;;;16.03;69.15;96506.28;5094304;28;20028;-63
2021/06/07 01:03:00;;;;;;;7.07;6.38;;;;;;;16.00;69.50;96506.44;5094119;28;20027;-63
2021/06/07 01:05:27;;;;;;;7.10;6.40;;;;;;;15.99;69.95;96508.25;5094126;28;20019;-63
2021/06/07 01:07:53;;;;;;;12.77;8.32;;;;;;;16.05;70.10;96509.66;5094037;28;20486;-63
2021/06/07 01:10:20;;;;;;;10.00;6.45;;;;;;;16.09;70.04;96507.69;5094046;28;20024;-63
2021/06/07 01:12:46;;;;;;;8.18;7.18;;;;;;;16.10;69.73;96504.94;5094016;28;20107;-63
2021/06/07 01:15:13;;;;;;;10.35;6.57;;;;;;;16.05;69.64;96499.13;5093819;28;20522;-63
2021/06/07 01:17:39;;;;;;;8.48;6.13;;;;;;;16.10;69.98;96507.59;5093804;28;20051;-64
2021/06/07 01:20:07;;;;;;;7.68;6.70;;;;;;;16.10;69.84;96502.31;5093898;28;20020;-63
2021/06/07 01:22:34;;;;;;;7.63;6.93;;;;;;;16.07;70.52;96513.03;5093762;28;20035;-64
2021/06/07 01:24:59;;;;;;;10.95;7.72;;;;;;;16.07;69.52;96514.84;5093895;28;20040;-64
2021/06/07 01:27:25;;;;;;;8.13;6.07;;;;;;;16.05;69.79;96514.94;5093685;28;20035;-63
2021/06/07 01:29:51;;;;;;;7.38;6.68;;;;;;;16.03;69.75;96516.81;5093654;28;20089;-63
2021/06/07 01:32:16;;;;;;;8.43;6.25;;;;;;;15.92;69.06;96512.16;5093728;28;20067;-63
2021/06/07 01:34:42;;;;;;;8.95;7.57;;;;;;;15.95;69.59;96503.22;5092662;28;20107;-64
2021/06/07 01:37:08;;;;;;;8.07;6.80;;;;;;;16.02;69.46;96502.78;5093599;28;20031;-63
2021/06/07 01:39:34;;;;;;;9.95;7.03;;;;;;;16.07;69.82;96502.50;5093323;28;20455;-63
2021/06/07 01:42:00;;;;;;;7.50;6.35;;;;;;;16.11;70.33;96503.16;5093537;28;20073;-63
2021/06/07 01:44:25;;;;;;;8.27;6.15;;;;;;;16.02;70.24;96499.31;5093526;28;20061;-63
2021/06/07 01:46:51;;;;;;;7.70;6.07;;;;;;;15.96;70.38;96495.25;5093504;28;20051;-63
2021/06/07 01:49:17;;;;;;;8.32;6.28;;;;;;;15.92;70.43;96494.53;5093372;28;20039;-63
2021/06/07 01:51:43;;;;;;;11.00;8.18;;;;;;;15.93;70.79;96487.50;5093283;28;20028;-63
2021/06/07 01:54:08;;;;;;;8.77;6.22;;;;;;;15.95;70.46;96477.69;5093387;28;20026;-63
2021/06/07 01:56:35;;;;;;;12.13;6.43;;;;;;;15.98;70.40;96487.25;5093438;28;20020;-63
2021/06/07 01:59:01;;;;;;;7.63;6.75;;;;;;;15.98;71.27;96498.63;5093453;28;20027;-63
2021/06/07 02:01:28;;;;;;;6.88;6.18;;;;;;;16.01;70.99;96492.31;5093457;28;20539;-63
2021/06/07 02:03:53;;;;;;;10.45;7.32;;;;;;;15.98;70.50;96500.44;5093240;28;20112;-63
2021/06/07 02:06:22;;;;;;;9.15;6.35;;;;;;;16.02;70.70;96504.56;5093208;28;20056;-63
2021/06/07 02:08:48;;;;;;;9.63;6.55;;;;;;;16.05;70.97;96507.03;5093218;28;20109;-64
2021/06/07 02:11:21;;;;;;;7.00;5.80;;;;;;;16.04;70.17;96500.91;5093185;28;20040;-63
2021/06/07 02:13:52;;;;;;;17.05;8.23;;;;;;;16.03;70.22;96506.28;5093194;28;20111;-63
2021/06/07 02:16:27;;;;;;;8.35;6.60;;;;;;;16.01;71.17;96516.06;5093226;28;20113;-63
2021/06/07 02:18:53;;;;;;;10.30;7.28;;;;;;;16.00;71.45;96509.09;5093141;28;20024;-63
2021/06/07 02:21:22;;;;;;;9.45;6.40;;;;;;;15.99;70.62;96505.63;5093153;28;20024;-63
2021/06/07 02:23:49;;;;;;;8.90;6.47;;;;;;;15.96;71.29;96511.09;5092984;28;20538;-63
2021/06/07 02:26:15;;;;;;;13.00;7.82;;;;;;;15.92;71.09;96506.88;5093025;28;20042;-63
2021/06/07 02:28:47;;;;;;;7.85;6.43;;;;;;;15.83;71.40;96510.09;5092938;28;20448;-63
2021/06/07 02:31:14;;;;;;;9.90;7.32;;;;;;;15.81;72.02;96504.91;5093244;28;20031;-63
2021/06/07 02:33:39;;;;;;;7.13;6.00;;;;;;;15.81;72.15;96502.28;5093071;28;20027;-63
2021/06/07 02:36:05;;;;;;;7.25;6.38;;;;;;;15.87;72.03;96509.78;5092885;28;20020;-63
2021/06/07 02:38:30;;;;;;;10.68;6.85;;;;;;;15.86;72.05;96505.47;5092722;28;20040;-63
2021/06/07 02:40:56;;;;;;;12.35;8.02;;;;;;;15.86;71.87;96507.28;5092928;28;20412;-63
2021/06/07 02:43:22;;;;;;;7.00;6.32;;;;;;;15.90;71.12;96509.59;5092842;28;20376;-63
2021/06/07 02:45:48;;;;;;;7.55;5.97;;;;;;;15.98;70.87;96521.53;5094303;28;20035;-63
2021/06/07 02:48:16;;;;;;;10.35;7.60;;;;;;;16.01;71.26;96516.06;5096772;28;20027;-63
2021/06/07 02:50:44;;;;;;;7.43;5.65;;;;;;;16.02;71.36;96518.59;5096803;28;20078;-63
2021/06/07 02:53:11;;;;;;;10.80;7.57;;;;;;;15.99;71.31;96510.91;5096774;28;20386;-63
2021/06/07 02:55:44;;;;;;;7.22;6.57;;;;;;;15.99;71.35;96515.31;5096749;28;20024;-63
2021/06/07 02:58:09;;;;;;;13.80;6.70;;;;;;;16.02;71.88;96513.31;5096682;28;20393;-63
2021/06/07 03:00:41;;;;;;;7.75;6.60;;;;;;;16.06;71.42;96513.13;5096537;28;20030;-63
2021/06/07 03:03:09;;;;;;;8.10;7.30;;;;;;;16.06;71.77;96514.00;5096793;28;20028;-63
2021/06/07 03:05:36;;;;;;;10.85;7.22;;;;;;;16.11;71.41;96514.59;5096534;28;20095;-63
2021/06/07 03:08:03;;;;;;;7.63;6.47;;;;;;;16.20;71.95;96514.94;5096402;28;20032;-63
2021/06/07 03:10:30;;;;;;;13.93;6.40;;;;;;;16.27;71.89;96510.97;5096395;28;20028;-63
2021/06/07 03:12:55;;;;;;;6.82;5.70;;;;;;;16.30;70.94;96516.06;5096235;28;20016;-63
2021/06/07 03:15:24;;;;;;;10.45;6.30;;;;;;;16.35;71.51;96529.00;5096267;28;20082;-63
2021/06/07 03:17:52;;;;;;;14.05;6.78;;;;;;;16.39;71.32;96530.50;5096281;28;20474;-64
2021/06/07 03:20:21;;;;;;;7.00;6.30;;;;;;;16.37;70.74;96529.72;5096347;28;20114;-63
2021/06/07 03:22:46;;;;;;;7.05;6.45;;;;;;;16.45;71.29;96524.84;5096273;28;20077;-63
2021/06/07 03:25:12;;;;;;;8.45;6.70;;;;;;;16.50;71.67;96533.31;5096095;28;20024;-63
2021/06/07 03:27:40;;;;;;;8.57;6.40;;;;;;;16.60;71.76;96525.69;5096095;28;20039;-63
2021/06/07 03:30:08;;;;;;;6.13;5.60;;;;;;;16.61;70.50;96524.72;5096105;28;20032;-63
2021/06/07 03:32:33;;;;;;;6.50;5.95;;;;;;;16.66;70.38;96527.94;5095926;28;20032;-63
2021/06/07 03:34:59;;;;;;;8.50;6.13;;;;;;;16.91;71.22;96522.88;5095707;28;20024;-63
2021/06/07 03:37:25;;;;;;;10.30;5.90;;;;;;;17.28;69.99;96522.31;5094544;28;20133;-64
2021/06/07 03:39:51;;;;;;;8.60;5.22;;;;;;;17.68;69.34;96524.97;5095739;28;20490;-63
2021/06/07 03:42:17;;;;;;;7.60;5.32;;;;;;;17.93;68.77;96531.22;5095868;28;20027;-64
2021/06/07 03:44:43;;;;;;;6.47;5.43;;;;;;;17.97;67.72;96531.03;5095711;28;20477;-65
2021/06/07 03:47:09;;;;;;;7.30;5.22;;;;;;;17.92;67.63;96536.63;5095625;28;20035;-64
2021/06/07 03:49:34;;;;;;;6.10;5.10;;;;;;;17.85;67.32;96538.81;5095578;28;20500;-63
2021/06/07 03:52:00;;;;;;;5.93;5.25;;;;;;;17.79;67.49;96540.09;5095750;28;20112;-64
2021/06/07 03:54:26;;;;;;;6.45;5.40;;;;;;;17.77;67.80;96542.00;5094406;28;20392;-63
2021/06/07 03:56:51;;;;;;;8.52;5.88;;;;;;;17.76;67.81;96539.47;5094728;28;20016;-63
2021/06/07 03:59:17;;;;;;;6.53;5.88;;;;;;;17.72;67.43;96541.47;5095456;28;20056;-64
2021/06/07 04:01:43;;;;;;;6.43;5.82;;;;;;;17.72;68.38;96541.47;5095583;28;20035;-64
2021/06/07 04:04:09;;;;;;;6.97;5.95;;;;;;;17.81;69.07;96547.94;5095453;28;20028;-63
2021/06/07 04:06:34;;;;;;;6.55;5.75;;;;;;;18.02;68.86;96542.13;5095413;28;20478;-63
2021/06/07 04:09:01;;;;;;;5.25;4.85;;;;;;;18.29;68.15;96544.72;5095331;28;20099;-64
2021/06/07 04:11:27;;;;;;;8.05;5.55;;;;;;;18.42;67.29;96543.84;5095178;28;20024;-64
2021/06/07 04:13:53;;;;;;;5.80;5.30;;;;;;;18.42;67.16;96539.41;5095232;28;20023;-64
2021/06/07 04:16:19;;;;;;;5.72;5.18;;;;;;;18.43;66.78;96540.25;5095195;28;20031;-64
2021/06/07 04:18:44;;;;;;;8.05;5.70;;;;;;;18.50;66.35;96541.53;5095200;28;20470;-64
2021/06/07 04:21:12;;;;;;;7.30;5.70;;;;;;;18.69;67.12;96538.41;5095166;28;20024;-64
2021/06/07 04:23:37;;;;;;;8.48;5.72;;;;;;;18.86;66.87;96538.16;5094893;28;20020;-64
2021/06/07 04:26:03;;;;;;;8.77;5.15;;;;;;;19.16;66.83;96534.28;5093665;28;20093;-63
2021/06/07 04:28:29;;;;;;;10.10;5.22;;;;;;;19.81;65.05;96534.78;5094704;28;20045;-64
2021/06/07 04:30:55;;;;;;;5.38;4.25;;;;;;;20.53;61.99;96528.50;5095087;28;20058;-64
2021/06/07 04:33:21;;;;;;;7.00;4.38;;;;;;;21.26;61.89;96535.19;5094781;28;20094;-65
2021/06/07 04:35:47;;;;;;;4.18;3.78;;;;;;;22.02;58.52;96542.25;5094763;28;20110;-64
2021/06/07 04:38:13;;;;;;;5.43;4.00;;;;;;;22.76;56.07;96539.56;5094599;28;20482;-64
2021/06/07 04:40:43;;;;;;;4.88;3.83;;;;;;;23.38;51.49;96535.09;5094763;28;20027;-65
2021/06/07 04:43:10;;;;;;;;;;;;;;;23.64;50.23;96534.53;5095076;28;20031;-64
2021/06/07 04:45:39;;;;;;;4.43;3.83;;;;;;;23.69;51.78;96541.13;5094582;28;19919;-65
2021/06/07 04:48:05;;;;;;;4.70;3.70;;;;;;;23.65;51.00;96531.72;5094373;28;20036;-64
2021/06/07 04:50:32;;;;;;;4.45;4.05;;;;;;;23.62;52.01;96541.84;5094369;28;20016;-65
2021/06/07 04:55:32;;;;;;;6.32;4.43;;;;;;;23.34;52.96;96551.34;5094433;28;20035;-65
2021/06/07 04:57:59;;;;;;;7.00;4.53;;;;;;;23.09;53.91;96544.72;5094400;28;20032;-65
2021/06/07 05:00:26;;;;;;;5.70;4.07;;;;;;;22.97;54.34;96547.47;5094177;28;20104;-65
2021/06/07 05:02:52;;;;;;;9.80;4.85;;;;;;;22.90;54.99;96546.34;5094134;28;20028;-65
2021/06/07 05:05:18;;;;;;;8.00;4.80;;;;;;;22.94;54.62;96549.56;5094210;28;20535;-65
2021/06/07 05:07:44;;;;;;;4.97;4.45;;;;;;;22.91;55.15;96555.19;5094120;28;20081;-65
2021/06/07 05:10:10;;;;;;;4.53;3.92;;;;;;;22.98;54.99;96556.31;5093966;28;20032;-65
2021/06/07 05:12:36;;;;;;;7.00;4.47;;;;;;;22.98;54.68;96556.31;5094182;28;20381;-65
2021/06/07 05:15:03;;;;;;;6.95;4.30;;;;;;;23.01;54.97;96552.53;5094013;28;20016;-65
2021/06/07 05:17:28;;;;;;;5.60;4.80;;;;;;;23.05;54.31;96554.78;5094088;28;20027;-65
2021/06/07 05:19:54;;;;;;;4.43;4.03;;;;;;;23.12;53.25;96554.25;5094021;28;20103;-65
2021/06/07 05:22:20;;;;;;;5.00;4.50;;;;;;;23.29;52.74;96572.25;5094000;28;20016;-65
2021/06/07 05:24:46;;;;;;;5.05;4.25;;;;;;;23.41;52.61;96559.66;5093965;28;20389;-65
2021/06/07 05:27:12;;;;;;;6.68;4.38;;;;;;;23.46;52.54;96565.44;5093792;28;20489;-65
2021/06/07 05:29:38;;;;;;;5.38;4.30;;;;;;;23.63;53.03;96570.22;5093750;28;20028;-65
2021/06/07 05:32:04;;;;;;;5.13;4.05;;;;;;;23.80;52.27;96566.84;5093839;28;20065;-65
2021/06/07 05:34:30;;;;;;;4.82;3.97;;;;;;;24.02;52.14;96567.50;5093816;28;20024;-65
2021/06/07 05:36:55;;;;;;;4.68;4.22;;;;;;;24.13;51.32;96571.91;5093661;28;20073;-65
2021/06/07 05:39:21;;;;;;;4.68;4.05;;;;;;;24.14;51.98;96570.91;5093361;28;20052;-65
2021/06/07 05:41:47;;;;;;;7.55;4.30;;;;;;;24.03;52.00;96576.38;5093684;28;20023;-65
2021/06/07 05:44:13;;;;;;;7.78;4.30;;;;;;;23.95;52.60;96577.94;5093499;28;20024;-65
2021/06/07 05:46:39;;;;;;;5.50;4.90;;;;;;;23.91;52.85;96586.38;5093525;28;20012;-65
2021/06/07 05:49:05;;;;;;;5.45;4.20;;;;;;;23.88;52.17;96589.31;5093466;28;20076;-64
2021/06/07 05:51:30;;;;;;;5.38;4.40;;;;;;;23.78;52.02;96592.81;5093443;28;20099;-65
2021/06/07 05:53:56;;;;;;;6.03;4.35;;;;;;;23.67;52.59;96596.50;5093453;28;20036;-65
2021/06/07 05:56:21;;;;;;;5.30;4.32;;;;;;;23.59;53.46;96594.53;5093461;28;20020;-65
2021/06/07 05:58:47;;;;;;;5.85;4.30;;;;;;;23.46;52.63;96589.47;5093440;28;20028;-65
2021/06/07 06:01:13;;;;;;;5.95;4.60;;;;;;;23.43;54.02;96591.53;5093355;28;20048;-65
2021/06/07 06:03:38;;;;;;;7.40;4.93;;;;;;;23.30;54.05;96583.78;5093200;28;20052;-65
2021/06/07 06:06:04;;;;;;;8.65;4.82;;;;;;;23.19;55.11;96587.41;5093395;28;20103;-65
2021/06/07 06:08:30;;;;;;;5.60;4.82;;;;;;;23.12;54.58;96589.78;5093346;28;20111;-65
2021/06/07 06:10:56;;;;;;;7.10;4.90;;;;;;;22.95;54.56;96588.59;5093255;28;20028;-65
2021/06/07 06:13:22;;;;;;;5.70;4.55;;;;;;;22.92;55.89;96597.72;5093317;28;20019;-65
2021/06/07 06:15:47;;;;;;;5.00;4.60;;;;;;;22.95;55.12;96597.44;5093184;28;20061;-66
2021/06/07 06:18:13;;;;;;;6.10;5.07;;;;;;;23.12;54.89;96603.13;5093146;28;20591;-65
2021/06/07 06:20:39;;;;;;;7.30;4.50;;;;;;;23.25;53.02;96600.19;5094426;28;20115;-65
2021/06/07 06:23:04;;;;;;;5.05;4.28;;;;;;;23.33;53.98;96595.00;5097402;28;20027;-65
2021/06/07 06:25:30;;;;;;;6.97;4.60;;;;;;;23.62;54.36;96596.06;5097369;28;20016;-65
2021/06/07 06:27:58;;;;;;;5.18;4.65;;;;;;;23.93;52.83;96595.09;5097155;28;20055;-65
2021/06/07 06:30:27;;;;;;;5.45;4.00;;;;;;;24.26;51.60;96600.97;5097265;28;20412;-65
2021/06/07 06:32:56;;;;;;;8.60;4.53;;;;;;;24.40;49.53;96599.69;5097257;28;20081;-65
2021/06/07 06:35:23;;;;;;;4.45;4.03;;;;;;;24.45;50.46;96588.56;5097150;28;20458;-65
2021/06/07 06:37:48;;;;;;;5.03;4.35;;;;;;;24.53;50.01;96585.19;5096742;28;20371;-65
2021/06/07 06:40:21;;;;;;;5.80;4.57;;;;;;;24.65;50.07;96594.69;5096999;28;20024;-65
2021/06/07 06:42:46;;;;;;;6.68;4.45;;;;;;;24.78;49.09;96582.84;5096987;28;20052;-66
2021/06/07 06:45:14;;;;;;;6.28;4.22;;;;;;;24.97;49.03;96595.31;5096904;28;20054;-66
2021/06/07 06:47:39;;;;;;;5.95;4.45;;;;;;;25.02;50.12;96589.50;5095777;28;20025;-66
2021/06/07 06:50:07;;;;;;;4.85;4.00;;;;;;;25.38;48.30;96589.59;5095564;28;20039;-66
2021/06/07 06:52:33;;;;;;;4.80;3.85;;;;;;;25.96;47.42;96600.03;5095525;28;20035;-66
2021/06/07 06:54:58;;;;;;;4.60;4.20;;;;;;;26.61;47.43;96596.19;5096729;28;20123;-65
2021/06/07 06:57:24;;;;;;;5.57;3.78;;;;;;;27.00;46.59;96591.38;5096787;28;20034;-66
2021/06/07 06:59:51;;;;;;;5.65;4.10;;;;;;;27.14;47.31;96595.28;5096996;28;20382;-66
2021/06/07 07:02:16;;;;;;;5.38;4.15;;;;;;;27.25;45.64;96597.69;5096845;28;20020;-66
2021/06/07 07:04:42;;;;;;;6.38;4.00;;;;;;;27.32;45.01;96594.34;5096699;28;20024;-66
2021/06/07 07:07:07;;;;;;;8.32;4.05;;;;;;;27.42;45.61;96595.03;5096637;28;20020;-66
2021/06/07 07:09:33;;;;;;;5.75;4.30;;;;;;;27.57;46.32;96591.72;5096499;28;20115;-66
2021/06/07 07:11:59;;;;;;;5.53;4.00;;;;;;;27.65;48.50;96594.44;5096564;28;20111;-66
2021/06/07 07:14:24;;;;;;;5.80;4.45;;;;;;;27.94;47.15;96605.72;5096635;28;20454;-66
2021/06/07 07:16:52;;;;;;;9.77;4.50;;;;;;;27.93;45.59;96604.06;5096305;28;20043;-66
2021/06/07 07:19:20;;;;;;;9.32;4.72;;;;;;;27.68;45.54;96601.31;5096346;28;20492;-66
2021/06/07 07:21:45;;;;;;;6.68;4.30;;;;;;;27.78;45.80;96604.69;5096229;28;20073;-66
2021/06/07 07:24:11;;;;;;;5.85;3.95;;;;;;;27.99;45.37;96606.91;5096431;28;20032;-66
2021/06/07 07:26:37;;;;;;;6.20;4.50;;;;;;;28.04;45.02;96601.03;5096379;28;20024;-66
2021/06/07 07:29:03;;;;;;;9.25;4.35;;;;;;;28.24;45.00;96604.19;5095977;28;20074;-66
2021/06/07 07:31:28;;;;;;;12.10;4.43;;;;;;;28.53;43.94;96601.19;5096155;28;20028;-66
2021/06/07 07:33:54;;;;;;;10.73;4.68;;;;;;;28.78;44.12;96599.28;5096280;28;20063;-66
2021/06/07 07:36:20;;;;;;;7.30;4.28;;;;;;;29.03;44.37;96596.53;5096113;28;20028;-67
2021/06/07 07:38:46;;;;;;;9.68;4.82;;;;;;;28.91;44.19;96600.56;5095576;28;20508;-67
2021/06/07 07:41:13;;;;;;;6.25;3.80;;;;;;;28.68;44.06;96606.72;5096058;28;20028;-66
2021/06/07 07:43:39;;;;;;;5.13;4.28;;;;;;;28.55;45.28;96601.84;5095736;28;20047;-66
2021/06/07 07:46:04;;;;;;;8.95;5.20;;;;;;;28.42;44.83;96608.63;5095830;28;20024;-66
2021/06/07 07:48:31;;;;;;;10.88;4.47;;;;;;;28.42;44.62;96610.44;5095773;28;20059;-66
2021/06/07 07:50:56;;;;;;;7.25;4.20;;;;;;;28.21;45.53;96609.09;5096030;28;20020;-66
2021/06/07 07:53:24;;;;;;;7.82;4.50;;;;;;;28.33;46.07;96610.47;5095655;28;20535;-66
2021/06/07 07:55:51;;;;;;;11.88;4.88;;;;;;;28.31;45.33;96615.16;5095593;28;20028;-67
2021/06/07 07:58:17;;;;;;;5.20;4.20;;;;;;;28.20;45.81;96610.13;5095765;28;20385;-66
2021/06/07 08:00:43;;;;;;;7.93;4.68;;;;;;;28.40;45.97;96609.78;5095646;28;20028;-66
2021/06/07 08:03:09;;;;;;;5.40;4.68;;;;;;;28.54;45.07;96610.94;5095650;28;20377;-66
2021/06/07 08:05:36;;;;;;;7.82;4.78;;;;;;;28.42;45.23;96608.63;5095551;28;20032;-66
2021/06/07 08:08:02;;;;;;;5.95;4.50;;;;;;;28.31;44.85;96612.47;5095543;28;20095;-66
2021/06/07 08:10:28;;;;;;;7.25;4.60;;;;;;;28.36;45.36;96607.41;5095451;28;20032;-66
2021/06/07 08:12:54;;;;;;;11.10;5.28;;;;;;;28.21;45.46;96604.56;5095545;28;20035;-66
2021/06/07 08:15:21;;;;;;;7.35;4.80;;;;;;;28.32;45.99;96607.94;5095285;28;20081;-66
2021/06/07 08:17:47;;;;;;;6.55;4.55;;;;;;;28.37;46.48;96619.88;5095467;28;20477;-66
2021/06/07 08:20:17;;;;;;;8.25;4.80;;;;;;;28.20;45.38;96610.94;5095215;28;20066;-66
2021/06/07 08:22:43;;;;;;;9.20;4.88;;;;;;;28.10;45.82;96613.81;5095330;28;20075;-66
2021/06/07 08:25:10;;;;;;;5.05;4.55;;;;;;;28.43;46.38;96612.97;5095145;28;20081;-66
2021/06/07 08:27:35;;;;;;;9.13;4.65;;;;;;;28.74;45.11;96614.06;5095049;28;20493;-66
2021/06/07 08:30:05;;;;;;;8.23;4.60;;;;;;;28.73;44.34;96609.72;5095059;28;20028;-66
2021/06/07 08:32:31;;;;;;;9.73;4.50;;;;;;;28.57;44.34;96611.44;5094999;28;20020;-66
2021/06/07 08:34:56;;;;;;;5.97;4.20;;;;;;;28.43;43.77;96602.22;5094933;28;20031;-67
2021/06/07 08:37:22;;;;;;;5.38;4.03;;;;;;;28.31;45.16;96615.16;5094907;28;20497;-65
2021/06/07 08:39:48;;;;;;;6.88;4.03;;;;;;;28.26;43.75;96612.94;5094824;28;20048;-67
2021/06/07 08:42:14;;;;;;;5.50;4.20;;;;;;;28.29;44.64;96617.19;5094719;28;20032;-66
2021/06/07 08:44:40;;;;;;;10.05;4.30;;;;;;;28.15;44.55;96623.19;5094202;28;20086;-67
2021/06/07 08:47:07;;;;;;;9.35;4.55;;;;;;;27.80;45.29;96615.28;5094502;28;20017;-66
2021/06/07 08:49:33;;;;;;;5.47;4.53;;;;;;;27.18;45.33;96622.66;5094571;28;20529;-66
2021/06/07 08:51:59;;;;;;;6.32;4.60;;;;;;;26.93;45.95;96606.41;5094824;28;20367;-66
2021/06/07 08:54:24;;;;;;;8.15;4.70;;;;;;;26.98;45.96;96604.13;5094367;28;20038;-66
2021/06/07 08:56:50;;;;;;;12.63;4.47;;;;;;;26.95;46.84;96602.56;5094727;28;20027;-66
2021/06/07 08:59:16;;;;;;;7.20;4.63;;;;;;;26.86;46.98;96607.06;5094630;28;20027;-66
2021/06/07 09:01:42;;;;;;;7.85;4.93;;;;;;;26.78;46.58;96611.53;5094546;28;20027;-66
2021/06/07 09:04:17;;;;;;;8.35;4.65;;;;;;;26.70;46.74;96615.00;5094387;28;20082;-66
2021/06/07 09:06:45;;;;;;;6.65;4.80;;;;;;;26.62;47.89;96613.97;5094335;28;20035;-66
2021/06/07 09:09:12;;;;;;;5.93;5.10;;;;;;;26.57;47.12;96616.28;5094187;28;20113;-66
2021/06/07 09:11:42;;;;;;;8.50;5.22;;;;;;;26.55;47.27;96609.38;5094372;28;20024;-66
2021/06/07 09:14:25;;;;;;;6.28;5.00;;;;;;;26.30;48.07;96604.69;5094336;28;20111;-66
2021/06/07 09:16:52;;;;;;;6.22;4.93;;;;;;;25.99;48.39;96611.31;5094372;28;20024;-67
2021/06/07 09:19:24;;;;;;;10.30;5.13;;;;;;;25.96;48.28;96605.41;5094226;28;20030;-66
2021/06/07 09:21:50;;;;;;;11.63;5.38;;;;;;;25.81;47.90;96605.09;5093984;28;20433;-66
2021/06/07 09:24:16;;;;;;;7.20;5.30;;;;;;;25.88;49.44;96608.03;5094097;28;20047;-66
2021/06/07 09:26:45;;;;;;;6.88;5.57;;;;;;;25.91;50.24;96613.06;5094057;28;20020;-66
2021/06/07 09:29:19;;;;;;;8.48;5.28;;;;;;;25.69;50.71;96613.38;5093917;28;20032;-66
2021/06/07 09:31:53;;;;;;;9.02;5.35;;;;;;;25.46;51.55;96611.09;5093681;28;20029;-65
2021/06/07 09:34:29;;;;;;;9.20;5.38;;;;;;;25.42;52.55;96611.53;5093821;28;20035;-66
2021/06/07 09:37:03;;;;;;;8.35;6.00;;;;;;;25.29;53.26;96602.06;5093829;28;20036;-66
2021/06/07 09:39:30;;;;;;;11.82;6.90;;;;;;;25.18;52.77;96610.25;5093588;28;20048;-66
2021/06/07 09:41:59;;;;;;;7.40;5.15;;;;;;;25.18;52.15;96615.63;5093924;28;20024;-66
2021/06/07 09:44:31;;;;;;;6.32;5.28;;;;;;;25.20;51.89;96605.63;5093641;28;20107;-66
2021/06/07 09:47:09;;;;;;;7.72;6.20;;;;;;;25.08;51.50;96604.97;5093522;28;20071;-66
2021/06/07 09:49:48;;;;;;;10.13;5.65;;;;;;;25.02;52.85;96600.22;5093560;28;20389;-66
2021/06/07 09:52:21;;;;;;;9.20;5.57;;;;;;;25.00;52.04;96600.34;5093683;28;20024;-66
2021/06/07 09:55:18;;;;;;;6.25;5.65;;;;;;;25.01;53.76;96585.97;5092945;28;20016;-66
2021/06/07 09:57:49;;;;;;;9.98;6.00;;;;;;;25.02;53.25;96595.72;5093559;28;20473;-65
2021/06/07 10:00:42;;;;;;;9.15;5.43;;;;;;;25.02;52.27;96592.19;5093318;28;20024;-66
2021/06/07 10:03:19;;;;;;;5.72;5.03;;;;;;;24.93;52.33;96593.91;5093533;28;20028;-66
2021/06/07 10:05:47;;;;;;;7.07;6.35;;;;;;;25.06;52.81;96593.56;5093325;28;20024;-66
2021/06/07 10:08:12;;;;;;;7.70;4.85;;;;;;;25.04;52.34;96587.53;5093194;28;20077;-66
2021/06/07 10:10:39;;;;;;;6.53;5.13;;;;;;;25.20;51.63;96581.53;5093300;28;20020;-66
2021/06/07 10:13:11;;;;;;;8.02;5.38;;;;;;;25.28;51.29;96588.81;5093170;28;20030;-66
2021/06/07 10:15:39;;;;;;;4.57;4.03;;;;;;;25.48;52.18;96581.50;5093319;28;20389;-66
2021/06/07 10:18:19;;;;;;;6.97;4.93;;;;;;;25.84;50.96;96583.38;5093319;28;20036;-66
2021/06/07 10:20:50;;;;;;;8.65;5.05;;;;;;;25.90;49.66;96585.44;5093372;28;20032;-66
2021/06/07 10:23:30;;;;;;;5.80;4.93;;;;;;;26.04;50.21;96569.81;5093258;28;20025;-66
2021/06/07 10:25:59;;;;;;;8.43;4.88;;;;;;;26.24;49.72;96570.44;5093273;28;20020;-66
2021/06/07 10:28:31;;;;;;;6.57;5.25;;;;;;;26.39;49.22;96564.56;5093114;28;20470;-66
2021/06/07 10:31:08;;;;;;;8.15;5.22;;;;;;;26.20;50.47;96559.22;5093214;28;20474;-65
2021/06/07 10:33:37;;;;;;;7.65;4.93;;;;;;;26.34;50.97;96555.13;5093169;28;20028;-66
2021/06/07 10:36:21;;;;;;;7.93;5.00;;;;;;;26.37;50.28;96546.78;5093440;28;20028;-66
2021/06/07 10:38:47;;;;;;;5.55;4.72;;;;;;;26.52;50.82;96546.22;5092976;28;20173;-66
2021/06/07 10:41:24;;;;;;;4.90;4.50;;;;;;;26.76;47.84;96539.28;5093128;28;20100;-66
2021/06/07 10:43:53;;;;;;;6.40;5.03;;;;;;;26.94;48.41;96539.16;5093128;28;20055;-66
2021/06/07 10:46:34;;;;;;;5.43;4.50;;;;;;;27.06;48.73;96538.91;5093054;28;20024;-66
2021/06/07 10:49:03;;;;;;;6.22;3.90;;;;;;;27.11;47.00;96524.00;5093051;28;20418;-66
2021/06/07 10:51:31;;;;;;;5.63;4.03;;;;;;;27.30;46.16;96518.50;5093343;28;20020;-66
2021/06/07 10:54:28;;;;;;;3.95;3.38;;;;;;;27.40;44.34;96512.97;5093151;28;20032;-66
2021/06/07 10:56:53;;;;;;;6.65;4.22;;;;;;;27.49;46.87;96522.72;5092916;28;20533;-66
2021/06/07 10:59:19;;;;;;;6.53;3.53;;;;;;;27.34;45.63;96527.91;5092924;28;20016;-66
2021/06/07 11:01:54;;;;;;;4.75;3.92;;;;;;;27.27;46.89;96516.16;5092954;28;20043;-66
2021/06/07 11:04:38;;;;;;;4.88;3.83;;;;;;;27.26;47.13;96526.03;5093035;28;20099;-66
2021/06/07 11:07:18;;;;;;;4.22;3.88;;;;;;;27.38;45.77;96527.41;5094953;28;20107;-66
2021/06/07 11:10:02;;;;;;;;;;;;;;;27.27;46.32;96519.66;5096950;28;20036;-66
2021/06/07 11:12:33;;;;;;;5.38;4.18;;;;;;;27.54;45.69;96524.91;5096520;28;19912;-66
2021/06/07 11:15:13;;;;;;;;;;;;;;;27.57;44.00;96520.03;5096859;28;20048;-66
2021/06/07 11:17:39;;;;;;;4.47;3.58;;;;;;;27.63;45.03;96508.63;5096478;28;19911;-66
2021/06/07 11:20:05;;;;;;;3.53;3.22;;;;;;;27.73;45.49;96515.72;5096674;28;20107;-66
2021/06/07 11:23:03;;;;;;;5.32;3.40;;;;;;;27.74;40.39;96520.94;5096467;28;20020;-65
2021/06/07 11:25:28;;;;;;;3.22;3.00;;;;;;;27.58;39.93;96528.94;5092217;28;20047;-66
2021/06/07 11:27:54;;;;;;;4.55;3.47;;;;;;;27.48;42.20;96529.13;5096420;28;20024;-66
2021/06/07 11:30:21;;;;;;;4.07;3.33;;;;;;;27.56;44.18;96525.56;5096322;28;20363;-66
2021/06/07 11:32:48;;;;;;;5.97;3.40;;;;;;;27.62;42.68;96531.13;5096376;28;20024;-66
2021/06/07 11:35:43;;;;;;;3.80;3.33;;;;;;;27.69;41.97;96536.69;5096160;28;20056;-66
2021/06/07 11:38:27;;;;;;;5.60;3.60;;;;;;;27.79;41.85;96531.19;5095882;28;20492;-66
2021/06/07 11:40:53;;;;;;;5.95;3.20;;;;;;;27.88;42.00;96534.69;5096235;28;20024;-66